Latest Weather Observations for Horn Island

IDQ60801

Issued at 5:02 pm EST Saturday 30 April 2016 (issued every 30 minutes, with the page automatically refreshed every 10 minutes)

About weather observations | Map of weather stations | Latest weather observations for QLD | Other Formats
Station Details ID: 027058 Name: HORN ISLAND Lat: -10.58 Lon: 142.29 Height: 4.0 m
Data from the previous 72 hours. | See also: Recent months at Horn Island
Date/Time
EST
Temp
°C
App
Temp
°C
Dew
Point
Rel
Hum
%
Delta-T
°C
Wind Press
QNH
hPa
Press
MSL
hPa
Rain
since 9 am
mm
Dir
 
Spd
km/h
Gust
km/h
Spd
kts
Gust
kts
30/05:00pm 29.5 31.6 25.3 78 3.0 ESE 24 35 13 19 1008.4 - 0.0
30/04:30pm 30.2 33.0 25.3 75 3.5 ESE 20 28 11 15 1008.0 - 0.0
30/04:00pm 29.9 32.1 24.8 74 3.6 ESE 22 30 12 16 1008.1 - 0.0
30/03:30pm 30.4 33.4 25.5 75 3.5 ESE 20 24 11 13 1008.6 - 0.0
30/03:00pm 29.9 32.1 24.3 72 3.9 E 20 26 11 14 1009.1 1009.1 0.0
30/02:30pm 30.6 33.6 25.2 73 3.8 E 19 26 10 14 1009.5 - 0.0
30/02:00pm 29.7 32.3 24.6 74 3.6 E 19 24 10 13 1009.9 - 0.0
30/01:30pm 29.7 32.4 24.1 72 3.9 E 17 22 9 12 1010.5 - 0.0
30/01:00pm 29.7 32.7 24.6 74 3.6 E 17 22 9 12 1010.8 - 0.0
30/12:30pm 29.3 31.6 23.5 71 4.0 E 17 22 9 12 1011.4 - 0.0
30/12:00pm 29.9 32.4 24.5 73 3.8 E 19 28 10 15 1011.9 1011.9 0.0
30/11:30am 29.7 31.5 23.2 68 4.5 E 19 22 10 12 1012.3 - 0.0
30/11:00am 29.0 32.1 24.1 75 3.4 ENE 15 20 8 11 1012.7 - 0.0
30/10:30am 29.0 31.9 23.9 74 3.5 ENE 15 20 8 11 1013.1 - 0.0
30/10:00am 29.1 31.8 24.2 75 3.4 ENE 17 24 9 13 1013.3 - 0.0
30/09:30am 29.0 32.6 24.3 76 3.3 ENE 13 20 7 11 1013.3 - 0.0
30/09:00am 28.2 31.8 24.4 80 2.6 NE 13 17 7 9 1013.2 1013.2 0.0
30/08:30am 27.8 31.5 24.6 83 2.2 ENE 13 17 7 9 1013.0 - 0.0
30/08:00am 27.7 32.3 24.7 84 2.1 ENE 9 15 5 8 1012.7 - 0.0
30/07:30am 27.3 31.4 24.6 85 1.9 E 11 17 6 9 1012.5 - 0.0
30/07:00am 26.5 30.4 24.2 87 1.6 NE 11 17 6 9 1012.1 - 0.0
30/06:30am 26.3 30.6 24.2 88 1.4 ENE 9 13 5 7 1011.8 - 0.0
30/06:24am 26.4 30.3 24.2 88 1.5 ENE 11 15 6 8 1011.7 - 0.0
30/06:08am 26.4 29.8 24.1 87 1.6 ENE 13 20 7 11 1011.6 - 0.0
30/06:00am 26.4 29.5 24.2 88 1.5 NE 15 22 8 12 1011.5 1011.5 0.0
30/05:49am 26.5 30.1 24.3 88 1.5 NE 13 17 7 9 1011.5 - 0.0
30/05:30am 26.8 30.2 24.6 88 1.5 ENE 15 24 8 13 1011.1 - 0.0
30/05:20am 26.9 30.6 25.1 90 1.3 ENE 15 22 8 12 1010.9 - 0.0
30/05:00am 26.9 30.3 24.7 88 1.5 E 15 20 8 11 1010.7 - 0.0
30/04:30am 27.0 30.1 24.8 88 1.5 E 17 20 9 11 1010.4 - 0.0
30/04:00am 26.8 30.3 24.8 89 1.4 E 15 20 8 11 1010.3 - 0.0
30/03:30am 26.5 28.2 24.7 90 1.2 E 24 35 13 19 1009.9 - 0.0
30/03:00am 26.8 30.3 25.4 92 1.0 ENE 17 26 9 14 1010.3 1010.3 0.0
30/02:55am 26.8 29.8 25.2 91 1.1 NE 19 26 10 14 1010.4 - 0.0
30/02:38am 28.0 31.4 25.8 88 1.6 E 19 28 10 15 1010.5 - 0.0
30/02:30am 28.0 31.2 25.8 88 1.6 ESE 20 28 11 15 1010.5 - 0.0
30/02:27am 28.0 31.2 25.8 88 1.6 E 20 28 11 15 1010.5 - 0.0
30/02:00am 27.7 31.4 26.3 92 1.0 ESE 19 28 10 15 1010.9 - 0.0
30/01:30am 26.2 30.2 24.4 90 1.2 NE 11 15 6 8 1011.4 - 0.0
30/01:00am 28.1 31.7 26.1 89 1.4 E 19 26 10 14 1011.4 - 0.0
30/12:39am 27.8 30.6 25.0 85 2.0 E 19 24 10 13 1011.6 - 0.0
30/12:30am 28.3 31.0 25.7 86 1.8 E 22 32 12 17 1011.6 - 0.0
30/12:00am 28.1 31.3 25.9 88 1.6 ESE 20 26 11 14 1011.8 1011.8 0.0
 
Date/Time
EST
Temp
°C
App
Temp
°C
Dew
Point
Rel
Hum
%
Delta-T
°C
Wind Press
QNH
hPa
Press
MSL
hPa
Rain
since 9 am
mm
Dir
 
Spd
km/h
Gust
km/h
Spd
kts
Gust
kts
29/11:30pm 28.1 30.8 25.7 87 1.7 ESE 22 32 12 17 1011.8 - 0.0
29/11:00pm 28.2 31.4 25.6 86 1.8 ESE 19 26 10 14 1011.9 - 0.0
29/10:30pm 28.2 31.3 25.4 85 2.0 ESE 19 30 10 16 1012.1 - 0.0
29/10:07pm 28.3 30.9 25.5 85 2.0 ESE 22 30 12 16 1012.2 - 0.0
29/10:00pm 28.3 31.3 25.5 85 2.0 ESE 20 33 11 18 1012.2 - 0.0
29/09:53pm 28.3 31.5 25.9 87 1.7 ESE 20 33 11 18 1012.0 - 0.0
29/09:30pm 28.1 32.4 26.1 89 1.4 ESE 15 20 8 11 1012.1 - 0.0
29/09:00pm 28.0 31.4 25.8 88 1.6 SE 19 26 10 14 1011.8 1011.8 0.0
29/08:30pm 27.8 31.4 25.6 88 1.5 SSE 17 22 9 12 1011.5 - 0.0
29/08:00pm 27.9 31.3 25.3 86 1.8 SE 17 24 9 13 1011.0 - 0.0
29/07:30pm 27.9 30.4 25.3 86 1.8 SE 22 30 12 16 1010.7 - 0.0
29/07:00pm 28.5 31.7 25.9 86 1.8 ESE 20 24 11 13 1010.5 - 0.0
29/06:30pm 28.6 32.1 26.0 86 1.8 ESE 19 26 10 14 1010.1 - 0.0
29/06:00pm 28.8 31.1 25.6 83 2.3 ESE 24 33 13 18 1009.7 1009.7 0.0
29/05:30pm 29.0 32.0 25.6 82 2.4 E 20 30 11 16 1009.3 - 0.0
29/05:00pm 28.9 31.4 25.3 81 2.5 ESE 22 30 12 16 1009.0 - 0.0
29/04:30pm 29.1 32.0 25.9 83 2.3 E 22 30 12 16 1009.0 - 0.0
29/04:00pm 29.4 32.1 25.6 80 2.7 ESE 22 32 12 17 1008.8 - 0.0
29/03:30pm 29.4 31.0 25.2 78 3.0 ESE 26 37 14 20 1008.7 - 0.0
29/03:00pm 29.9 33.4 26.3 81 2.6 ESE 20 28 11 15 1008.7 1008.7 0.0
29/02:30pm 30.1 31.1 25.4 76 3.3 E 30 39 16 21 1008.8 - 0.0
29/02:00pm 30.1 31.6 25.6 77 3.2 ESE 28 37 15 20 1008.9 - 0.0
29/01:30pm 30.2 31.9 25.3 75 3.5 E 26 37 14 20 1009.3 - 0.0
29/01:07pm 30.0 31.6 25.7 78 3.0 ESE 28 39 15 21 1009.5 - 0.0
29/01:02pm 30.0 31.5 25.5 77 3.2 ESE 28 37 15 20 1009.5 - 0.0
29/01:00pm 30.3 32.6 26.2 79 2.9 ESE 26 37 14 20 1009.6 - 0.0
29/12:50pm 29.9 31.7 25.4 77 3.2 ESE 26 35 14 19 1009.6 - 0.0
29/12:30pm 30.3 32.0 26.5 80 2.7 ESE 30 41 16 22 1010.0 - 0.0
29/12:00pm 30.0 30.9 25.3 76 3.3 E 30 41 16 22 1010.4 1010.4 0.0
29/11:30am 30.0 31.4 26.0 79 2.8 ESE 30 39 16 21 1010.8 - 0.0
29/11:00am 29.5 30.6 25.5 79 2.8 E 30 39 16 21 1011.3 - 0.0
29/10:30am 29.9 31.9 26.3 81 2.6 E 28 37 15 20 1011.8 - 0.0
29/10:00am 29.8 32.5 26.2 81 2.6 E 24 32 13 17 1012.1 - 0.0
29/09:58am 29.8 32.0 26.0 80 2.7 E 26 32 14 17 1012.1 - 0.0
29/09:44am 29.4 31.9 25.4 79 2.8 E 22 32 12 17 1012.1 - 0.0
29/09:41am 29.7 32.8 25.7 79 2.8 E 20 30 11 16 1012.1 - 0.0
29/09:30am 29.4 32.1 25.6 80 2.7 ESE 22 32 12 17 1012.1 - 0.0
29/09:02am 29.3 32.7 26.1 83 2.3 ESE 20 32 11 17 1011.8 - 0.0
29/09:00am 29.3 32.7 26.1 83 2.3 ESE 20 32 11 17 1011.7 1011.7 4.6
29/08:57am 29.0 31.9 26.0 84 2.1 E 22 32 12 17 1011.7 - 4.6
29/08:30am 28.7 31.0 25.7 84 2.1 ESE 24 33 13 18 1011.4 - 4.6
29/08:00am 28.6 32.1 26.0 86 1.8 ESE 19 26 10 14 1011.1 - 4.6
29/07:30am 27.7 32.7 26.5 93 0.9 ESE 13 17 7 9 1010.8 - 4.6
29/07:11am 27.4 31.5 26.3 94 0.8 ESE 17 22 9 12 1010.6 - 4.6
29/07:00am 27.3 31.2 26.1 93 0.8 ESE 17 22 9 12 1010.4 - 4.6
29/06:55am 27.2 31.9 26.1 94 0.8 ESE 13 19 7 10 1010.4 - 4.2
29/06:30am 26.9 31.9 26.0 95 0.6 SE 11 17 6 9 1009.9 - 4.2
29/06:07am 27.0 31.6 25.9 94 0.8 SE 13 17 7 9 1009.6 - 4.2
29/06:00am 27.0 31.6 25.9 94 0.8 SE 13 17 7 9 1009.6 1009.6 4.2
29/05:30am 27.0 32.6 26.3 96 0.5 SE 9 15 5 8 1009.3 - 4.2
29/05:14am 26.9 32.0 26.2 96 0.5 SE 11 15 6 8 1009.1 - 4.2
29/05:00am 26.9 32.4 26.2 96 0.5 SE 9 13 5 7 1009.0 - 4.2
29/04:46am 26.9 32.6 26.4 97 0.4 SSE 9 13 5 7 1009.0 - 4.2
29/04:30am 26.8 31.9 26.1 96 0.5 SSE 11 13 6 7 1009.0 - 4.2
29/04:00am 26.8 32.0 26.3 97 0.4 SE 11 15 6 8 1008.9 - 4.2
29/03:30am 26.6 31.7 26.1 97 0.4 SSE 11 15 6 8 1008.9 - 4.0
29/03:27am 26.5 31.5 26.0 97 0.4 SSE 11 15 6 8 1008.9 - 4.0
29/03:14am 26.5 31.9 26.0 97 0.4 SSE 9 11 5 6 1008.9 - 4.0
29/03:03am 26.4 31.7 25.9 97 0.4 ESE 9 11 5 6 1009.0 - 4.0
29/03:00am 26.4 31.3 25.9 97 0.4 E 11 15 6 8 1009.0 1009.0 4.0
29/02:47am 26.6 31.5 25.9 96 0.5 SE 11 13 6 7 1009.3 - 0.4
29/02:30am 26.5 31.2 25.6 95 0.6 SSE 11 15 6 8 1009.4 - 0.2
29/02:00am 26.6 31.8 25.7 95 0.6 SSE 9 15 5 8 1009.6 - 0.2
29/01:30am 26.8 31.5 25.6 93 0.8 SE 11 15 6 8 1010.0 - 0.2
29/01:00am 26.7 31.3 25.3 92 1.0 SSE 11 15 6 8 1010.2 - 0.2
29/12:30am 26.9 31.6 25.5 92 1.0 SE 11 19 6 10 1010.5 - 0.2
29/12:00am 26.8 31.5 25.6 93 0.8 SSE 11 15 6 8 1010.8 1010.8 0.2
 
Date/Time
EST
Temp
°C
App
Temp
°C
Dew
Point
Rel
Hum
%
Delta-T
°C
Wind Press
QNH
hPa
Press
MSL
hPa
Rain
since 9 am
mm
Dir
 
Spd
km/h
Gust
km/h
Spd
kts
Gust
kts
28/11:30pm 26.8 31.3 25.8 94 0.7 SE 13 17 7 9 1011.0 - 0.0
28/11:04pm 26.9 31.8 25.9 94 0.7 SE 11 17 6 9 1011.2 - 0.0
28/11:00pm 26.9 31.8 25.9 94 0.7 SE 11 15 6 8 1011.1 - 0.0
28/10:43pm 27.0 31.9 25.9 94 0.8 ESE 11 15 6 8 1011.2 - 0.0
28/10:38pm 27.0 31.6 25.9 94 0.8 ESE 13 20 7 11 1011.2 - 0.0
28/10:30pm 27.0 30.7 25.8 93 0.8 ESE 17 20 9 11 1011.2 - 0.0
28/10:26pm 27.1 30.9 25.9 93 0.8 ESE 17 20 9 11 1011.2 - 0.0
28/10:00pm 27.0 31.7 25.6 92 1.0 SSE 11 17 6 9 1011.1 - 0.0
28/09:30pm 27.0 31.2 25.4 91 1.1 SE 13 20 7 11 1010.8 - 0.0
28/09:00pm 26.9 30.8 24.9 89 1.4 SE 13 19 7 10 1010.7 1010.7 0.0
28/08:30pm 26.8 30.3 24.8 89 1.4 SSE 15 20 8 11 1010.5 - 0.0
28/08:00pm 27.1 29.9 24.9 88 1.5 SE 19 28 10 15 1010.0 - 0.0
28/07:30pm 27.8 31.3 25.4 87 1.7 SE 17 24 9 13 1009.5 - 0.0
28/07:00pm 27.9 31.3 25.3 86 1.8 SE 17 24 9 13 1008.9 - 0.0
28/06:30pm 28.1 31.4 25.1 84 2.1 ESE 17 24 9 13 1008.5 - 0.0
28/06:00pm 28.4 31.8 25.2 83 2.2 ESE 17 22 9 12 1008.2 1008.2 0.0
28/05:30pm 28.8 32.3 24.8 79 2.8 E 15 20 8 11 1008.2 - 0.0
28/05:00pm 27.7 29.9 24.3 82 2.4 E 20 28 11 15 1008.1 - 0.0
28/04:30pm 29.2 32.6 25.2 79 2.8 E 17 24 9 13 1008.0 - 0.0
28/04:00pm 29.0 30.5 25.0 79 2.8 E 26 33 14 18 1007.8 - 0.0
28/03:30pm 29.6 31.2 25.1 77 3.2 E 26 32 14 17 1007.6 - 0.0
28/03:00pm 29.7 32.5 25.2 77 3.2 E 20 32 11 17 1007.9 1007.9 0.0
28/02:30pm 30.0 31.5 24.9 74 3.6 E 26 35 14 19 1008.0 - 0.0
28/02:00pm 29.8 30.9 24.4 73 3.8 E 26 33 14 18 1008.3 - 0.0
28/01:30pm 30.0 32.0 25.1 75 3.4 ESE 24 33 13 18 1008.4 - 0.0
28/01:00pm 29.6 31.2 25.1 77 3.2 ESE 26 35 14 19 1008.8 - 0.0
28/12:30pm 30.4 33.0 26.1 78 3.1 ESE 24 33 13 18 1009.2 - 0.0
28/12:00pm 29.6 31.3 25.3 77 3.0 ESE 26 33 14 18 1009.8 1009.8 0.0
28/11:30am 29.5 31.3 24.8 76 3.3 E 24 33 13 18 1010.3 - 0.0
28/11:00am 29.2 30.7 24.3 75 3.4 E 24 32 13 17 1010.7 - 0.0
28/10:30am 29.4 31.8 25.2 78 3.0 ESE 22 32 12 17 1010.9 - 0.0
28/10:00am 29.1 31.6 25.3 80 2.7 ESE 22 30 12 16 1010.8 - 0.0
28/09:30am 28.3 31.7 25.3 84 2.1 ESE 17 26 9 14 1010.6 - 0.0
28/09:20am 27.5 31.9 26.3 93 0.9 ESE 15 20 8 11 1010.8 - 0.0
28/09:03am 27.3 30.7 25.3 89 1.4 SE 17 26 9 14 1010.6 - 0.0
28/09:00am 27.5 31.3 25.3 88 1.5 SE 15 20 8 11 1010.6 1010.6 1.8
28/08:43am 27.9 32.2 25.5 87 1.7 ESE 13 17 7 9 1010.3 - 1.8
28/08:30am 27.4 31.6 25.4 89 1.4 ESE 13 19 7 10 1010.2 - 1.8
28/08:00am 27.1 31.0 24.9 88 1.5 SE 13 19 7 10 1009.9 - 1.8
28/07:30am 26.3 31.6 25.3 94 0.7 SSE 7 11 4 6 1009.7 - 1.8
28/07:00am 26.0 30.6 25.3 96 0.5 SSE 11 17 6 9 1009.4 - 1.8
28/06:30am 25.8 30.1 24.9 95 0.6 SSE 11 15 6 8 1008.9 - 1.8
28/06:28am 25.8 30.1 24.9 95 0.6 SSE 11 15 6 8 1008.9 - 1.8
28/06:24am 25.8 30.1 24.9 95 0.6 SSE 11 17 6 9 1008.8 - 1.8
28/06:00am 25.8 29.7 24.9 95 0.6 SE 13 17 7 9 1008.6 1008.6 1.4
28/05:52am 26.1 29.6 24.9 93 0.8 SE 15 20 8 11 1008.5 - 1.2
28/05:43am 26.2 29.3 24.8 92 1.0 SE 17 24 9 13 1008.4 - 1.2
28/05:30am 26.0 29.0 24.6 92 1.0 SE 17 22 9 12 1008.4 - 1.2
28/05:28am 26.0 29.0 24.6 92 1.0 SE 17 22 9 12 1008.4 - 1.2
28/05:13am 26.0 29.1 24.8 93 0.8 SE 17 24 9 13 1008.3 - 1.2
28/05:00am 26.0 29.2 25.0 94 0.7 SE 17 28 9 15 1008.4 - 1.2
28/04:55am 26.0 29.5 24.8 93 0.8 SE 15 24 8 13 1008.3 - 1.2
28/04:44am 26.1 29.6 24.9 93 0.8 SSE 15 22 8 12 1008.3 - 1.2
28/04:30am 26.0 29.0 24.6 92 1.0 SE 17 24 9 13 1008.4 - 1.2
28/04:00am 26.0 29.1 24.8 93 0.8 SSE 17 28 9 15 1008.4 - 1.2
28/03:30am 26.0 29.2 25.0 94 0.7 SSE 17 24 9 13 1008.4 - 1.0
28/03:00am 25.8 30.2 25.1 96 0.5 SSE 11 17 6 9 1008.5 1008.5 1.0
28/02:43am 25.8 29.5 25.1 96 0.5 SSE 15 20 8 11 1008.5 - 1.0
28/02:40am 25.8 29.5 25.1 96 0.5 SSE 15 20 8 11 1008.4 - 1.0
28/02:30am 25.9 30.0 25.2 96 0.5 SSE 13 17 7 9 1008.4 - 1.0
28/02:21am 26.0 29.3 25.1 95 0.6 SE 17 24 9 13 1008.7 - 1.0
28/02:19am 26.0 29.2 25.0 94 0.7 SE 17 24 9 13 1008.7 - 1.0
28/02:08am 26.0 29.2 25.0 94 0.7 SE 17 24 9 13 1008.8 - 1.0
28/02:00am 26.1 29.8 25.1 94 0.7 SSE 15 19 8 10 1009.1 - 0.8
28/01:57am 26.2 29.4 25.0 93 0.8 SSE 17 26 9 14 1009.1 - 0.6
28/01:30am 26.3 29.2 24.5 90 1.2 SSE 17 24 9 13 1009.1 - 0.2
28/01:00am 26.6 29.2 24.6 89 1.4 SE 19 30 10 16 1009.7 - 0.2
28/12:30am 26.4 29.4 24.6 90 1.2 SE 17 24 9 13 1009.8 - 0.2
28/12:00am 26.3 29.3 24.7 91 1.1 SSE 17 22 9 12 1010.0 1010.0 0.2
 
Date/Time
EST
Temp
°C
App
Temp
°C
Dew
Point
Rel
Hum
%
Delta-T
°C
Wind Press
QNH
hPa
Press
MSL
hPa
Rain
since 9 am
mm
Dir
 
Spd
km/h
Gust
km/h
Spd
kts
Gust
kts
27/11:45pm 26.3 29.3 24.7 91 1.1 SE 17 26 9 14 1010.0 - 0.2
27/11:30pm 26.4 29.5 24.8 91 1.1 SSE 17 28 9 15 1010.1 - 0.2
27/11:10pm 26.3 29.1 24.9 92 1.0 SSE 19 26 10 14 1010.3 - 0.2
27/11:00pm 26.3 30.0 25.1 93 0.8 SE 15 20 8 11 1010.3 - 0.2
27/10:52pm 26.5 29.7 24.9 91 1.1 SE 17 26 9 14 1010.3 - 0.0
27/10:38pm 26.7 29.4 24.7 89 1.4 SE 19 24 10 13 1010.4 - 0.0
27/10:30pm 26.7 29.4 24.7 89 1.4 ESE 19 26 10 14 1010.4 - 0.0
27/10:00pm 27.1 28.8 24.7 87 1.7 SE 24 35 13 19 1010.3 - 0.0
27/09:30pm 27.2 28.8 24.5 85 1.9 SE 24 32 13 17 1010.2 - 0.0
27/09:08pm 27.1 29.5 24.6 86 1.7 SE 20 30 11 16 1010.0 - 0.0
27/09:00pm 27.0 29.5 24.5 86 1.7 SE 19 26 10 14 1010.0 1010.0 0.0
27/08:56pm 27.1 29.7 24.6 86 1.7 SE 19 28 10 15 1010.0 - 0.0
27/08:30pm 26.8 29.0 24.3 86 1.7 SE 20 32 11 17 1009.6 - 0.0
27/08:00pm 26.7 28.9 24.0 85 1.9 SE 19 26 10 14 1009.4 - 0.0
27/07:30pm 27.0 29.1 24.1 84 2.0 SE 20 33 11 18 1008.9 - 0.0
27/07:00pm 26.8 29.2 24.3 86 1.7 SSE 19 26 10 14 1008.6 - 0.0
27/06:30pm 26.9 28.6 24.0 84 2.0 SSE 22 33 12 18 1008.2 - 0.0
27/06:00pm 27.2 28.1 23.9 82 2.3 SE 26 35 14 19 1008.0 1008.0 0.0
27/05:30pm 27.5 28.5 24.1 82 2.3 SE 26 41 14 22 1007.9 - 0.0

Other Formats:

Comma delimited format used in spreadsheet applications
http://www.bom.gov.au/fwo/IDQ60801/IDQ60801.94174.axf

JavaScript Object Notation format (JSON) in row-major order
http://www.bom.gov.au/fwo/IDQ60801/IDQ60801.94174.json